In Rescue
 
Open Full Screen Window  High Contrast Mode
Wind Gusting 17 knots
12
February 25, 2021 3:26 PM CST
Weather Information
Wind Direction
  260 °
Wind Speed
  12 kt (14 mph)
Wind Gust
  17 kt (20 mph)
Altimeter
30.08 in
Visibility
10 SM
Temperature
01° C
34° F
Dewpoint
-08° C
18° F
Humidity
51%
1hr Rain Fall
00.00 in.
24hr Rain Fall
00.00 in.
Sky Condition
Clear
VFR

METAR KCOQ 252126Z AUTO 26012G17KT 10SM CLR 01/M08 A3008 RMK AO2 TSNO

FAA Disclaimer: The data displayed is for advisory purposes only and is not to be used for flight planning or operations.